CheckWX is a tool to help pilots better visualize weather data.  It is not intended as a substitute for an official pre-flight weather briefing.

02:32:43 UTC

KIML METAR
Imperial Municipal Airport
Imperial, Nebraska, USA
Current

40 mins ago

KIML 230153Z AUTO 16014KT 10SM OVC040 07/05 A2999 RMK AO2 PK WND 15033/0057 RAE0057 SLP164 P0000 T00720050
Observed
Mar-23 @ 01:53 UTC
Wind
  • 160° at 14 KTS
Visibility
10 SM
Flight Rules
VFR
Cloud Levels
  • Overcast at 4,000' AGL
Temperature
C / 45°F
Dewpoint
C / 41°F
Humidity
87%
Altimeter
29.99" Hg
Pressure
1016.4 hPa
Current Rain
0.01"
Previous

2 hours ago

KIML 230101Z AUTO 15023G33KT 10SM SCT008 OVC060 08/05 A2997 RMK AO2 PK WND 15033/0057 RAE0057 P0000 T00780050
Observed
Mar-23 @ 01:01 UTC
Wind
  • 150° at 23 KTS
  • Gusting to 33 KTS
Visibility
10 SM
Flight Rules
VFR
Cloud Levels
  • Scattered at 800' AGL
  • Overcast at 6,000' AGL
Temperature
C / 46°F
Dewpoint
C / 41°F
Humidity
82%
Altimeter
29.97" Hg
Pressure
1014.92 hPa
Current Rain
0.01"
Previous

2 hours ago

KIML 230053Z AUTO 14020G32KT 10SM -RA BKN008 OVC060 08/05 A2995 RMK AO2 PK WND 12032/0025 SLP151 P0002 T00780050
Observed
Mar-23 @ 00:53 UTC
Wind
  • 140° at 20 KTS
  • Gusting to 32 KTS
Visibility
10 SM
Flight Rules
IFR
Conditions
Light Rain
Cloud Levels
  • Broken at 800' AGL
  • Overcast at 6,000' AGL
Temperature
C / 46°F
Dewpoint
C / 41°F
Humidity
82%
Altimeter
29.95" Hg
Pressure
1015.1 hPa
Current Rain
0.02"